sensor_id;sensor_type;location;lat;lon;timestamp;pressure;altitude;pressure_sealevel;temperature;humidity
17950;BME280;9100;48.700;9.316;2023-02-01T00:00:01;98391.5;;;4.58;100
17950;BME280;9100;48.700;9.316;2023-02-01T00:00:35;98394.8;;;4.58;100
17950;BME280;9100;48.700;9.316;2023-02-01T00:01:04;98389;;;4.58;100
17950;BME280;9100;48.700;9.316;2023-02-01T00:02:02;98396.5;;;4.59;100
17950;BME280;9100;48.700;9.316;2023-02-01T00:03:01;98397.40000000001;;;4.58;100
17950;BME280;9100;48.700;9.316;2023-02-01T00:04:01;98388.2;;;4.57;100
17950;BME280;9100;48.700;9.316;2023-02-01T00:05:02;98399;;;4.59;100
17950;BME280;9100;48.700;9.316;2023-02-01T00:05:35;98395.6;;;4.59;100
17950;BME280;9100;48.700;9.316;2023-02-01T00:06:01;98397.40000000001;;;4.58;100
17950;BME280;9100;48.700;9.316;2023-02-01T00:07:01;98393.1;;;4.59;100
17950;BME280;9100;48.700;9.316;2023-02-01T00:08:01;98392.2;;;4.6;100
17950;BME280;9100;48.700;9.316;2023-02-01T00:09:02;98385.7;;;4.57;100
17950;BME280;9100;48.700;9.316;2023-02-01T00:10:02;98380.7;;;4.56;100
17950;BME280;9100;48.700;9.316;2023-02-01T00:10:34;98388.4;;;4.54;100
17950;BME280;9100;48.700;9.316;2023-02-01T00:11:02;98386.8;;;4.53;100
17950;BME280;9100;48.700;9.316;2023-02-01T00:12:02;98390.20000000001;;;4.54;100
17950;BME280;9100;48.700;9.316;2023-02-01T00:13:01;98396.8;;;4.55;100
17950;BME280;9100;48.700;9.316;2023-02-01T00:14:02;98387.7;;;4.52;100
17950;BME280;9100;48.700;9.316;2023-02-01T00:15:02;98386.90000000001;;;4.52;100
17950;BME280;9100;48.700;9.316;2023-02-01T00:15:34;98388.7;;;4.51;100
17950;BME280;9100;48.700;9.316;2023-02-01T00:16:03;98379.5;;;4.5;100
17950;BME280;9100;48.700;9.316;2023-02-01T00:17:02;98381.1;;;4.51;100
17950;BME280;9100;48.700;9.316;2023-02-01T00:18:02;98379.5;;;4.5;100
17950;BME280;9100;48.700;9.316;2023-02-01T00:19:03;98380.2;;;4.51;100
17950;BME280;9100;48.700;9.316;2023-02-01T00:20:02;98380.2;;;4.51;100
17950;BME280;9100;48.700;9.316;2023-02-01T00:20:34;98370.3;;;4.49;100
17950;BME280;9100;48.700;9.316;2023-02-01T00:21:02;98371.90000000001;;;4.5;100
17950;BME280;9100;48.700;9.316;2023-02-01T00:22:01;98381.9;;;4.52;100
17950;BME280;9100;48.700;9.316;2023-02-01T00:23:01;98367.5;;;4.52;100
17950;BME280;9100;48.700;9.316;2023-02-01T00:24:02;98365.20000000001;;;4.49;100
17950;BME280;9100;48.700;9.316;2023-02-01T00:25:02;98361.1;;;4.48;100
17950;BME280;9100;48.700;9.316;2023-02-01T00:25:34;98367.5;;;4.52;100
17950;BME280;9100;48.700;9.316;2023-02-01T00:26:02;98367.5;;;4.52;100
17950;BME280;9100;48.700;9.316;2023-02-01T00:27:01;98362.7;;;4.49;100
17950;BME280;9100;48.700;9.316;2023-02-01T00:28:02;98368.6;;;4.48;100
17950;BME280;9100;48.700;9.316;2023-02-01T00:29:03;98376.09999999999;;;4.5;100
17950;BME280;9100;48.700;9.316;2023-02-01T00:30:02;98364.3;;;4.5;100
17950;BME280;9100;48.700;9.316;2023-02-01T00:30:35;98369.3;;;4.5;100
17950;BME280;9100;48.700;9.316;2023-02-01T00:31:03;98362.7;;;4.49;100
17950;BME280;9100;48.700;9.316;2023-02-01T00:32:02;98359.40000000001;;;4.47;100
17950;BME280;9100;48.700;9.316;2023-02-01T00:33:02;98361.90000000001;;;4.49;100
17950;BME280;9100;48.700;9.316;2023-02-01T00:34:02;98359.2;;;4.5;100
17950;BME280;9100;48.700;9.316;2023-02-01T00:35:02;98359.3;;;4.49;100
17950;BME280;9100;48.700;9.316;2023-02-01T00:35:34;98369.3;;;4.5;100
17950;BME280;9100;48.700;9.316;2023-02-01T00:36:02;98362.7;;;4.49;100
17950;BME280;9100;48.700;9.316;2023-02-01T00:37:01;98370.1;;;4.51;100
17950;BME280;9100;48.700;9.316;2023-02-01T00:38:02;98371.90000000001;;;4.5;100
17950;BME280;9100;48.700;9.316;2023-02-01T00:39:01;98379.5;;;4.5;100
17950;BME280;9100;48.700;9.316;2023-02-01T00:40:01;98379.5;;;4.5;100
17950;BME280;9100;48.700;9.316;2023-02-01T00:40:34;98373;;;4.46;100
17950;BME280;9100;48.700;9.316;2023-02-01T00:41:02;98372;;;4.49;100
17950;BME280;9100;48.700;9.316;2023-02-01T00:42:03;98365.20000000001;;;4.49;100
17950;BME280;9100;48.700;9.316;2023-02-01T00:43:01;98363.59999999999;;;4.48;100
17950;BME280;9100;48.700;9.316;2023-02-01T00:44:01;98361.1;;;4.48;100
17950;BME280;9100;48.700;9.316;2023-02-01T00:45:01;98362;;;4.47;100
17950;BME280;9100;48.700;9.316;2023-02-01T00:45:35;98359.6;;;4.46;100
17950;BME280;9100;48.700;9.316;2023-02-01T00:46:01;98368.1;;;4.45;100
17950;BME280;9100;48.700;9.316;2023-02-01T00:47:01;98358.7;;;4.47;100
17950;BME280;9100;48.700;9.316;2023-02-01T00:48:01;98354.5;;;4.46;100
17950;BME280;9100;48.700;9.316;2023-02-01T00:49:01;98358.8;;;4.45;100
17950;BME280;9100;48.700;9.316;2023-02-01T00:50:01;98353.7;;;4.45;100
17950;BME280;9100;48.700;9.316;2023-02-01T00:50:35;98359.7;;;4.44;100
17950;BME280;9100;48.700;9.316;2023-02-01T00:51:02;98358.8;;;4.45;100
17950;BME280;9100;48.700;9.316;2023-02-01T00:52:01;98358.8;;;4.45;100
17950;BME280;9100;48.700;9.316;2023-02-01T00:53:01;98352.8;;;4.46;100
17950;BME280;9100;48.700;9.316;2023-02-01T00:54:02;98359.40000000001;;;4.47;100
17950;BME280;9100;48.700;9.316;2023-02-01T00:55:01;98347.7;;;4.46;100
17950;BME280;9100;48.700;9.316;2023-02-01T00:55:35;98349.3;;;4.47;100
17950;BME280;9100;48.700;9.316;2023-02-01T00:56:02;98352;;;4.46;100
17950;BME280;9100;48.700;9.316;2023-02-01T00:57:01;98350.09999999999;;;4.48;100
17950;BME280;9100;48.700;9.316;2023-02-01T00:58:02;98352.59999999999;;;4.48;100
17950;BME280;9100;48.700;9.316;2023-02-01T00:59:02;98351.8;;;4.47;100
17950;BME280;9100;48.700;9.316;2023-02-01T01:00:02;98347.7;;;4.46;100
17950;BME280;9100;48.700;9.316;2023-02-01T01:00:35;98347.6;;;4.48;100
17950;BME280;9100;48.700;9.316;2023-02-01T01:01:02;98346;;;4.47;100
17950;BME280;9100;48.700;9.316;2023-02-01T01:02:01;98350.9;;;4.48;100
17950;BME280;9100;48.700;9.316;2023-02-01T01:03:02;98348.5;;;4.47;100
17950;BME280;9100;48.700;9.316;2023-02-01T01:04:01;98344.5;;;4.44;100
17950;BME280;9100;48.700;9.316;2023-02-01T01:05:02;98347.7;;;4.46;100
17950;BME280;9100;48.700;9.316;2023-02-01T01:05:34;98349.5;;;4.46;100
17950;BME280;9100;48.700;9.316;2023-02-01T01:06:03;98346;;;4.47;100
17950;BME280;9100;48.700;9.316;2023-02-01T01:07:01;98342.7;;;4.46;100
17950;BME280;9100;48.700;9.316;2023-02-01T01:08:01;98344.2;;;4.47;100
17950;BME280;9100;48.700;9.316;2023-02-01T01:09:03;98341.6;;;4.49;100
17950;BME280;9100;48.700;9.316;2023-02-01T01:10:02;98352.4;;;4.51;100
17950;BME280;9100;48.700;9.316;2023-02-01T01:10:34;98346.6;;;4.5;100
17950;BME280;9100;48.700;9.316;2023-02-01T01:11:04;98344;;;4.5;100
17950;BME280;9100;48.700;9.316;2023-02-01T01:12:01;98347.2;;;4.52;100
17950;BME280;9100;48.700;9.316;2023-02-01T01:13:02;98348.8;;;4.53;100
17950;BME280;9100;48.700;9.316;2023-02-01T01:14:02;98343.8;;;4.53;100
17950;BME280;9100;48.700;9.316;2023-02-01T01:15:01;98350.59999999999;;;4.53;100
17950;BME280;9100;48.700;9.316;2023-02-01T01:15:35;98347.2;;;4.52;100
17950;BME280;9100;48.700;9.316;2023-02-01T01:16:03;98353.2;;;4.51;100
17950;BME280;9100;48.700;9.316;2023-02-01T01:17:01;98350.59999999999;;;4.53;100
17950;BME280;9100;48.700;9.316;2023-02-01T01:18:02;98353.2;;;4.51;100
17950;BME280;9100;48.700;9.316;2023-02-01T01:19:02;98355.7;;;4.51;100
17950;BME280;9100;48.700;9.316;2023-02-01T01:20:02;98349.7;;;4.52;100
17950;BME280;9100;48.700;9.316;2023-02-01T01:20:35;98353.09999999999;;;4.53;100
17950;BME280;9100;48.700;9.316;2023-02-01T01:21:03;98350.59999999999;;;4.53;100
17950;BME280;9100;48.700;9.316;2023-02-01T01:22:01;98347;;;4.55;100
17950;BME280;9100;48.700;9.316;2023-02-01T01:23:03;98343.5;;;4.56;100
17950;BME280;9100;48.700;9.316;2023-02-01T01:24:02;98338.5;;;4.56;100
17950;BME280;9100;48.700;9.316;2023-02-01T01:25:02;98351.09999999999;;;4.56;100
17950;BME280;9100;48.700;9.316;2023-02-01T01:25:36;98347;;;4.55;100
17950;BME280;9100;48.700;9.316;2023-02-01T01:26:04;98347.90000000001;;;4.54;100
17950;BME280;9100;48.700;9.316;2023-02-01T01:27:02;98348.7;;;4.55;100
17950;BME280;9100;48.700;9.316;2023-02-01T01:28:02;98337.59999999999;;;4.56;100
17950;BME280;9100;48.700;9.316;2023-02-01T01:29:02;98341.9;;;4.55;100
17950;BME280;9100;48.700;9.316;2023-02-01T01:30:01;98349.59999999999;;;4.54;100
17950;BME280;9100;48.700;9.316;2023-02-01T01:30:34;98349.7;;;4.52;100
17950;BME280;9100;48.700;9.316;2023-02-01T01:31:01;98346.3;;;4.53;100
17950;BME280;9100;48.700;9.316;2023-02-01T01:32:01;98348.8;;;4.53;100
17950;BME280;9100;48.700;9.316;2023-02-01T01:33:01;98349.59999999999;;;4.54;100
17950;BME280;9100;48.700;9.316;2023-02-01T01:34:01;98347.1;;;4.54;100
17950;BME280;9100;48.700;9.316;2023-02-01T01:35:02;98348.8;;;4.53;100
17950;BME280;9100;48.700;9.316;2023-02-01T01:35:34;98348.7;;;4.55;100
17950;BME280;9100;48.700;9.316;2023-02-01T01:36:01;98352;;;4.55;100
17950;BME280;9100;48.700;9.316;2023-02-01T01:37:01;98347;;;4.55;100
17950;BME280;9100;48.700;9.316;2023-02-01T01:38:02;98351.09999999999;;;4.56;100
17950;BME280;9100;48.700;9.316;2023-02-01T01:39:02;98349.5;;;4.55;100
17950;BME280;9100;48.700;9.316;2023-02-01T01:40:02;98347.79999999999;;;4.56;100
17950;BME280;9100;48.700;9.316;2023-02-01T01:40:34;98356.2;;;4.56;100
17950;BME280;9100;48.700;9.316;2023-02-01T01:41:01;98357.8;;;4.57;100
17950;BME280;9100;48.700;9.316;2023-02-01T01:42:01;98352.70000000001;;;4.57;100
17950;BME280;9100;48.700;9.316;2023-02-01T01:43:02;98356.1;;;4.58;100
17950;BME280;9100;48.700;9.316;2023-02-01T01:44:02;98352.59999999999;;;4.59;100
17950;BME280;9100;48.700;9.316;2023-02-01T01:45:02;98357.7;;;4.59;100
17950;BME280;9100;48.700;9.316;2023-02-01T01:45:34;98354.2;;;4.6;100
17950;BME280;9100;48.700;9.316;2023-02-01T01:46:02;98349.1;;;4.6;100
17950;BME280;9100;48.700;9.316;2023-02-01T01:47:02;98346.5;;;4.61;100
17950;BME280;9100;48.700;9.316;2023-02-01T01:48:03;98352.59999999999;;;4.59;100
17950;BME280;9100;48.700;9.316;2023-02-01T01:49:03;98352.5;;;4.6;100
17950;BME280;9100;48.700;9.316;2023-02-01T01:50:02;98346.7;;;4.58;100
17950;BME280;9100;48.700;9.316;2023-02-01T01:50:35;98351;;;4.58;100
17950;BME280;9100;48.700;9.316;2023-02-01T01:51:02;98350.09999999999;;;4.59;100
17950;BME280;9100;48.700;9.316;2023-02-01T01:52:02;98355.9;;;4.59;100
17950;BME280;9100;48.700;9.316;2023-02-01T01:53:04;98345.9;;;4.58;100
17950;BME280;9100;48.700;9.316;2023-02-01T01:54:03;98353.4;;;4.59;100
17950;BME280;9100;48.700;9.316;2023-02-01T01:55:02;98349.1;;;4.6;100
17950;BME280;9100;48.700;9.316;2023-02-01T01:55:35;98348.29999999999;;;4.59;100
17950;BME280;9100;48.700;9.316;2023-02-01T01:56:02;98347.5;;;4.59;100
17950;BME280;9100;48.700;9.316;2023-02-01T01:57:03;98344.9;;;4.6;100
17950;BME280;9100;48.700;9.316;2023-02-01T01:58:03;98343.3;;;4.59;100
17950;BME280;9100;48.700;9.316;2023-02-01T01:59:02;98351.59999999999;;;4.61;100
17950;BME280;9100;48.700;9.316;2023-02-01T02:00:03;98344.1;;;4.6;100
17950;BME280;9100;48.700;9.316;2023-02-01T02:00:34;98345.8;;;4.59;100
17950;BME280;9100;48.700;9.316;2023-02-01T02:01:02;98330.6;;;4.59;100
17950;BME280;9100;48.700;9.316;2023-02-01T02:02:02;98337.90000000001;;;4.62;100
17950;BME280;9100;48.700;9.316;2023-02-01T02:03:03;98340.4;;;4.64;100
17950;BME280;9100;48.700;9.316;2023-02-01T02:04:02;98331;;;4.64;100
17950;BME280;9100;48.700;9.316;2023-02-01T02:05:02;98336.1;;;4.64;100
17950;BME280;9100;48.700;9.316;2023-02-01T02:05:34;98329.4;;;4.63;100
17950;BME280;9100;48.700;9.316;2023-02-01T02:06:03;98334.5;;;4.63;100
17950;BME280;9100;48.700;9.316;2023-02-01T02:07:03;98332;;;4.63;100
17950;BME280;9100;48.700;9.316;2023-02-01T02:08:02;98328.59999999999;;;4.63;100
17950;BME280;9100;48.700;9.316;2023-02-01T02:09:02;98332.9;;;4.62;100
17950;BME280;9100;48.700;9.316;2023-02-01T02:10:02;98332;;;4.63;100
17950;BME280;9100;48.700;9.316;2023-02-01T02:10:34;98335.40000000001;;;4.62;100
17950;BME280;9100;48.700;9.316;2023-02-01T02:11:02;98331.3;;;4.61;100
17950;BME280;9100;48.700;9.316;2023-02-01T02:12:02;98332.1;;;4.62;100
17950;BME280;9100;48.700;9.316;2023-02-01T02:13:02;98332;;;4.63;100
17950;BME280;9100;48.700;9.316;2023-02-01T02:14:02;98327.8;;;4.62;100
17950;BME280;9100;48.700;9.316;2023-02-01T02:15:02;98330.3;;;4.62;100
17950;BME280;9100;48.700;9.316;2023-02-01T02:15:35;98317.7;;;4.62;100
17950;BME280;9100;48.700;9.316;2023-02-01T02:16:07;98318.5;;;4.63;100
17950;BME280;9100;48.700;9.316;2023-02-01T02:17:07;98326.8;;;4.65;100
17950;BME280;9100;48.700;9.316;2023-02-01T02:18:04;98324.1;;;4.66;100
17950;BME280;9100;48.700;9.316;2023-02-01T02:19:08;98320.9;;;4.64;100
17950;BME280;9100;48.700;9.316;2023-02-01T02:20:09;98327.59999999999;;;4.65;100
17950;BME280;9100;48.700;9.316;2023-02-01T02:20:40;98322.5;;;4.65;100
17950;BME280;9100;48.700;9.316;2023-02-01T02:21:10;98318.2;;;4.66;100
17950;BME280;9100;48.700;9.316;2023-02-01T02:22:06;98319.8;;;4.67;100
17950;BME280;9100;48.700;9.316;2023-02-01T02:23:09;98259.90000000001;;;4.26;100
17950;BME280;9100;48.700;9.316;2023-02-01T02:24:09;98329.2;;;4.66;100
17950;BME280;9100;48.700;9.316;2023-02-01T02:25:13;98322.5;;;4.65;100
17950;BME280;9100;48.700;9.316;2023-02-01T02:25:39;98320.9;;;4.64;100
17950;BME280;9100;48.700;9.316;2023-02-01T02:26:09;98326.59999999999;;;4.66;100
17950;BME280;9100;48.700;9.316;2023-02-01T02:27:03;98322.40000000001;;;4.67;100
17950;BME280;9100;48.700;9.316;2023-02-01T02:28:05;98325.59999999999;;;4.69;100
17950;BME280;9100;48.700;9.316;2023-02-01T02:29:15;98321.5;;;4.68;100
17950;BME280;9100;48.700;9.316;2023-02-01T02:30:07;98326.4;;;4.69;100
17950;BME280;9100;48.700;9.316;2023-02-01T02:30:54;98319;;;4.66;100
17950;BME280;9100;48.700;9.316;2023-02-01T02:31:07;98314.8;;;4.67;100
17950;BME280;9100;48.700;9.316;2023-02-01T02:32:09;98319;;;4.66;100
17950;BME280;9100;48.700;9.316;2023-02-01T02:33:48;98318.1;;;4.67;100
17950;BME280;9100;48.700;9.316;2023-02-01T02:34:04;98326.5;;;4.68;100
17950;BME280;9100;48.700;9.316;2023-02-01T02:35:02;98320;;;4.65;100
17950;BME280;9100;48.700;9.316;2023-02-01T02:35:36;98320;;;4.65;100
17950;BME280;9100;48.700;9.316;2023-02-01T02:36:03;98319;;;4.66;100
17950;BME280;9100;48.700;9.316;2023-02-01T02:37:04;98317.2;;;4.68;100
17950;BME280;9100;48.700;9.316;2023-02-01T02:38:05;98317.2;;;4.68;100
17950;BME280;9100;48.700;9.316;2023-02-01T02:39:03;98320.5;;;4.69;100
17950;BME280;9100;48.700;9.316;2023-02-01T02:40:04;98309.6;;;4.68;100
17950;BME280;9100;48.700;9.316;2023-02-01T02:40:35;98304.7;;;4.67;100
17950;BME280;9100;48.700;9.316;2023-02-01T02:41:04;98305.5;;;4.67;100
17950;BME280;9100;48.700;9.316;2023-02-01T02:42:02;98301.2;;;4.68;100
17950;BME280;9100;48.700;9.316;2023-02-01T02:43:03;98303.59999999999;;;4.69;100
17950;BME280;9100;48.700;9.316;2023-02-01T02:44:04;98301.9;;;4.7;100
17950;BME280;9100;48.700;9.316;2023-02-01T02:45:03;98306.3;;;4.68;100
17950;BME280;9100;48.700;9.316;2023-02-01T02:45:36;98307.1;;;4.68;100
17950;BME280;9100;48.700;9.316;2023-02-01T02:46:03;98308.6;;;4.69;100
17950;BME280;9100;48.700;9.316;2023-02-01T02:47:02;98307.7;;;4.7;100
17950;BME280;9100;48.700;9.316;2023-02-01T02:48:02;98301.59999999999;;;4.73;100
17950;BME280;9100;48.700;9.316;2023-02-01T02:49:03;98310;;;4.73;100
17950;BME280;9100;48.700;9.316;2023-02-01T02:50:05;98311.6;;;4.74;100
17950;BME280;9100;48.700;9.316;2023-02-01T02:50:34;98310;;;4.73;100
17950;BME280;9100;48.700;9.316;2023-02-01T02:51:03;98305.9;;;4.72;100
17950;BME280;9100;48.700;9.316;2023-02-01T02:52:02;98305.7;;;4.74;100
17950;BME280;9100;48.700;9.316;2023-02-01T02:53:02;98300.59999999999;;;4.75;100
17950;BME280;9100;48.700;9.316;2023-02-01T02:54:05;98299.90000000001;;;4.73;100
17950;BME280;9100;48.700;9.316;2023-02-01T02:55:03;98311.7;;;4.73;100
17950;BME280;9100;48.700;9.316;2023-02-01T02:55:34;98304.1;;;4.73;100
17950;BME280;9100;48.700;9.316;2023-02-01T02:56:02;98311.6;;;4.74;100
17950;BME280;9100;48.700;9.316;2023-02-01T02:57:03;98308.2;;;4.75;100
17950;BME280;9100;48.700;9.316;2023-02-01T02:58:01;98303.09999999999;;;4.75;100
17950;BME280;9100;48.700;9.316;2023-02-01T02:59:02;98303.09999999999;;;4.75;100
17950;BME280;9100;48.700;9.316;2023-02-01T03:00:03;98306.5;;;4.74;100
17950;BME280;9100;48.700;9.316;2023-02-01T03:00:35;98305.6;;;4.75;100
17950;BME280;9100;48.700;9.316;2023-02-01T03:01:01;98303.9;;;4.76;100
17950;BME280;9100;48.700;9.316;2023-02-01T03:02:02;98306.3;;;4.77;100
17950;BME280;9100;48.700;9.316;2023-02-01T03:03:02;98302.8;;;4.78;100
17950;BME280;9100;48.700;9.316;2023-02-01T03:04:02;98303.8;;;4.77;100
17950;BME280;9100;48.700;9.316;2023-02-01T03:05:02;98302;;;4.78;100
17950;BME280;9100;48.700;9.316;2023-02-01T03:05:34;98305.4;;;4.78;100
17950;BME280;9100;48.700;9.316;2023-02-01T03:06:01;98302;;;4.78;100
17950;BME280;9100;48.700;9.316;2023-02-01T03:07:10;98313.59999999999;;;4.8;100
17950;BME280;9100;48.700;9.316;2023-02-01T03:08:02;98309.5;;;4.79;100
17950;BME280;9100;48.700;9.316;2023-02-01T03:09:03;98307.9;;;4.78;100
17950;BME280;9100;48.700;9.316;2023-02-01T03:10:02;98308.7;;;4.79;100
17950;BME280;9100;48.700;9.316;2023-02-01T03:10:38;98310.6;;;4.77;100
17950;BME280;9100;48.700;9.316;2023-02-01T03:11:02;98302.8;;;4.78;100
17950;BME280;9100;48.700;9.316;2023-02-01T03:12:03;98304.5;;;4.79;100
17950;BME280;9100;48.700;9.316;2023-02-01T03:13:02;98307.9;;;4.78;100
17950;BME280;9100;48.700;9.316;2023-02-01T03:14:01;98307.2;;;4.76;100
17950;BME280;9100;48.700;9.316;2023-02-01T03:15:03;98302.3;;;4.75;100
17950;BME280;9100;48.700;9.316;2023-02-01T03:15:35;98307.5;;;4.73;100
17950;BME280;9100;48.700;9.316;2023-02-01T03:16:03;98304.9;;;4.73;100
17950;BME280;9100;48.700;9.316;2023-02-01T03:17:03;98309.1;;;4.74;100
17950;BME280;9100;48.700;9.316;2023-02-01T03:18:03;98301.5;;;4.74;100
17950;BME280;9100;48.700;9.316;2023-02-01T03:19:03;98297.5;;;4.72;100
17950;BME280;9100;48.700;9.316;2023-02-01T03:20:02;98293.2;;;4.72;100
17950;BME280;9100;48.700;9.316;2023-02-01T03:20:34;98298.29999999999;;;4.72;100
17950;BME280;9100;48.700;9.316;2023-02-01T03:21:02;98287.40000000001;;;4.72;100
17950;BME280;9100;48.700;9.316;2023-02-01T03:22:02;98298.29999999999;;;4.72;100
17950;BME280;9100;48.700;9.316;2023-02-01T03:23:01;98296.7;;;4.71;100
17950;BME280;9100;48.700;9.316;2023-02-01T03:24:02;98293.3;;;4.71;100
17950;BME280;9100;48.700;9.316;2023-02-01T03:25:03;98290;;;4.7;100
17950;BME280;9100;48.700;9.316;2023-02-01T03:25:34;98288.3;;;4.71;100
17950;BME280;9100;48.700;9.316;2023-02-01T03:26:02;98287.5;;;4.7;100
17950;BME280;9100;48.700;9.316;2023-02-01T03:27:03;98284.90000000001;;;4.7;100
17950;BME280;9100;48.700;9.316;2023-02-01T03:28:02;98289.09999999999;;;4.71;100
17950;BME280;9100;48.700;9.316;2023-02-01T03:29:04;98290;;;4.7;100
17950;BME280;9100;48.700;9.316;2023-02-01T03:30:02;98281.6;;;4.7;100
17950;BME280;9100;48.700;9.316;2023-02-01T03:30:34;98287.5;;;4.7;100
17950;BME280;9100;48.700;9.316;2023-02-01T03:31:02;98289.20000000001;;;4.7;100
17950;BME280;9100;48.700;9.316;2023-02-01T03:32:01;98283.1;;;4.72;100
17950;BME280;9100;48.700;9.316;2023-02-01T03:33:02;98286.5;;;4.71;100
17950;BME280;9100;48.700;9.316;2023-02-01T03:34:01;98286.5;;;4.71;100
17950;BME280;9100;48.700;9.316;2023-02-01T03:35:01;98290.8;;;4.71;100
17950;BME280;9100;48.700;9.316;2023-02-01T03:35:36;98279.1;;;4.7;100
17950;BME280;9100;48.700;9.316;2023-02-01T03:36:05;98281.5;;;4.71;100
17950;BME280;9100;48.700;9.316;2023-02-01T03:37:02;98281.5;;;4.71;100
17950;BME280;9100;48.700;9.316;2023-02-01T03:38:03;98285.7;;;4.71;100
17950;BME280;9100;48.700;9.316;2023-02-01T03:39:02;98292.5;;;4.7;100
17950;BME280;9100;48.700;9.316;2023-02-01T03:40:03;98279.2;;;4.68;100
17950;BME280;9100;48.700;9.316;2023-02-01T03:40:35;98275.09999999999;;;4.67;100
17950;BME280;9100;48.700;9.316;2023-02-01T03:41:03;98268.1;;;4.69;100
17950;BME280;9100;48.700;9.316;2023-02-01T03:42:03;98268.1;;;4.69;100
17950;BME280;9100;48.700;9.316;2023-02-01T03:43:04;98265.59999999999;;;4.69;100
17950;BME280;9100;48.700;9.316;2023-02-01T03:44:04;98268.4;;;4.66;100
17950;BME280;9100;48.700;9.316;2023-02-01T03:45:04;98258.4;;;4.65;100
17950;BME280;9100;48.700;9.316;2023-02-01T03:45:35;98260.90000000001;;;4.65;100
17950;BME280;9100;48.700;9.316;2023-02-01T03:46:02;98257.4;;;4.66;100
17950;BME280;9100;48.700;9.316;2023-02-01T03:47:03;98267.7;;;4.64;100
17950;BME280;9100;48.700;9.316;2023-02-01T03:48:02;98266;;;4.65;100
17950;BME280;9100;48.700;9.316;2023-02-01T03:49:04;98261.7;;;4.65;100
17950;BME280;9100;48.700;9.316;2023-02-01T03:50:03;98258.5;;;4.63;100
17950;BME280;9100;48.700;9.316;2023-02-01T03:50:34;98255.2;;;4.63;100
17950;BME280;9100;48.700;9.316;2023-02-01T03:51:02;98267;;;4.62;100
17950;BME280;9100;48.700;9.316;2023-02-01T03:52:02;98256.1;;;4.62;100
17950;BME280;9100;48.700;9.316;2023-02-01T03:53:03;98264.5;;;4.62;100
17950;BME280;9100;48.700;9.316;2023-02-01T03:54:03;98258.8;;;4.6;100
17950;BME280;9100;48.700;9.316;2023-02-01T03:55:01;98252.9;;;4.6;100
17950;BME280;9100;48.700;9.316;2023-02-01T03:55:34;98247.29999999999;;;4.56;100
17950;BME280;9100;48.700;9.316;2023-02-01T03:56:02;98246.5;;;4.56;100
17950;BME280;9100;48.700;9.316;2023-02-01T03:57:03;98248.1;;;4.57;100
17950;BME280;9100;48.700;9.316;2023-02-01T03:58:02;98248.2;;;4.55;100
17950;BME280;9100;48.700;9.316;2023-02-01T03:59:02;98244.1;;;4.54;100
17950;BME280;9100;48.700;9.316;2023-02-01T04:00:04;98241.7;;;4.53;100
17950;BME280;9100;48.700;9.316;2023-02-01T04:00:34;98242.5;;;4.53;100
17950;BME280;9100;48.700;9.316;2023-02-01T04:01:01;98248.29999999999;;;4.54;100
17950;BME280;9100;48.700;9.316;2023-02-01T04:02:01;98246.7;;;4.53;100
17950;BME280;9100;48.700;9.316;2023-02-01T04:03:02;98247.5;;;4.53;100
17950;BME280;9100;48.700;9.316;2023-02-01T04:04:02;98251;;;4.52;100
17950;BME280;9100;48.700;9.316;2023-02-01T04:05:02;98253.5;;;4.52;100
17950;BME280;9100;48.700;9.316;2023-02-01T04:05:35;98252.9;;;4.5;100
17950;BME280;9100;48.700;9.316;2023-02-01T04:06:02;98247.79999999999;;;4.5;100
17950;BME280;9100;48.700;9.316;2023-02-01T04:07:02;98253.59999999999;;;4.51;100
17950;BME280;9100;48.700;9.316;2023-02-01T04:08:01;98251.09999999999;;;4.51;100
17950;BME280;9100;48.700;9.316;2023-02-01T04:09:02;98249.40000000001;;;4.51;100
17950;BME280;9100;48.700;9.316;2023-02-01T04:10:02;98248.5;;;4.52;100
17950;BME280;9100;48.700;9.316;2023-02-01T04:10:34;98247.7;;;4.52;100
17950;BME280;9100;48.700;9.316;2023-02-01T04:11:02;98249.90000000001;;;4.55;100
17950;BME280;9100;48.700;9.316;2023-02-01T04:12:02;98245.7;;;4.55;100
17950;BME280;9100;48.700;9.316;2023-02-01T04:13:02;98245.7;;;4.55;100
17950;BME280;9100;48.700;9.316;2023-02-01T04:14:01;98249.7;;;4.58;100
17950;BME280;9100;48.700;9.316;2023-02-01T04:15:02;98254.9;;;4.56;100
17950;BME280;9100;48.700;9.316;2023-02-01T04:15:36;98242.2;;;4.56;100
17950;BME280;9100;48.700;9.316;2023-02-01T04:16:01;98253.2;;;4.57;100
17950;BME280;9100;48.700;9.316;2023-02-01T04:17:01;98246.5;;;4.56;100
17950;BME280;9100;48.700;9.316;2023-02-01T04:18:01;98247.29999999999;;;4.56;100
17950;BME280;9100;48.700;9.316;2023-02-01T04:19:01;98248.2;;;4.55;100
17950;BME280;9100;48.700;9.316;2023-02-01T04:20:02;98231;;;4.49;100
17950;BME280;9100;48.700;9.316;2023-02-01T04:20:34;98254;;;4.57;100
17950;BME280;9100;48.700;9.316;2023-02-01T04:21:01;98251.5;;;4.56;100
17950;BME280;9100;48.700;9.316;2023-02-01T04:22:01;98259.79999999999;;;4.58;100
17950;BME280;9100;48.700;9.316;2023-02-01T04:23:02;98250.5;;;4.58;100
17950;BME280;9100;48.700;9.316;2023-02-01T04:24:02;98246.2;;;4.59;100
17950;BME280;9100;48.700;9.316;2023-02-01T04:25:02;98250.5;;;4.58;100
17950;BME280;9100;48.700;9.316;2023-02-01T04:25:34;98247.90000000001;;;4.58;100
17950;BME280;9100;48.700;9.316;2023-02-01T04:26:02;98246.2;;;4.59;100
17950;BME280;9100;48.700;9.316;2023-02-01T04:27:02;98239.4;;;4.59;100
17950;BME280;9100;48.700;9.316;2023-02-01T04:28:02;98243.6;;;4.6;100
17950;BME280;9100;48.700;9.316;2023-02-01T04:29:02;98245.2;;;4.61;100
17950;BME280;9100;48.700;9.316;2023-02-01T04:30:02;98250.3;;;4.61;100
17950;BME280;9100;48.700;9.316;2023-02-01T04:30:34;98258.8;;;4.6;100
17950;BME280;9100;48.700;9.316;2023-02-01T04:31:01;98266.2;;;4.62;100
17950;BME280;9100;48.700;9.316;2023-02-01T04:32:01;98265.4;;;4.61;100
17950;BME280;9100;48.700;9.316;2023-02-01T04:33:01;98268.6;;;4.63;100
17950;BME280;9100;48.700;9.316;2023-02-01T04:34:02;98248.29999999999;;;4.44;100
17950;BME280;9100;48.700;9.316;2023-02-01T04:35:02;98276.09999999999;;;4.65;100
17950;BME280;9100;48.700;9.316;2023-02-01T04:35:35;98277.70000000001;;;4.66;100
17950;BME280;9100;48.700;9.316;2023-02-01T04:36:02;98278.5;;;4.66;100